Flight Track Log - Related Links

Times and Time Zones

All times are in EDT time to prevent confusion due to time zone crossing. See the CTL13 flight status page for this flight to view local times or setup timezone preferences in your user account.

Time Position Orientation Groundspeed Altitude Reporting Facility
EDT Latitude Longitude Course Direction KTS MPH feet Rate Location/Type
Wed 10:43:04 PM 41.8000 -87.6833 93° East 139 160 1,900  Level Chicago TRACON
Wed 10:44:10 PM 41.8000 -87.6167 90° East 151 174 2,700 714 Climbing Chicago TRACON
Wed 10:45:10 PM 41.8000 -87.5667 90° East 149 171 3,400 700 Climbing Chicago TRACON
Wed 10:46:10 PM 41.8000 -87.5167 90° East 147 169 4,100 744 Climbing Chicago TRACON
Wed 10:47:11 PM 41.8064 -87.4647 81° East 148 170 4,900 488 Climbing Chicago Center
Wed 10:48:00 PM 41.7795 -87.3791 93° East  Level FlightAware Approximate
Wed 10:48:13 PM 41.8075 -87.4075 88° East 150 173 5,100  Level Chicago Center
Wed 10:49:15 PM 41.8097 -87.3242 88° East 179 206 5,100  Level Chicago Center
Wed 10:50:17 PM 41.8217 -87.2569 77° East 184 212 5,100 49 Level Chicago Center
Wed 10:51:18 PM 41.8394 -87.1942 69° East 183 211 5,200 98 Climbing Chicago Center
Wed 10:52:20 PM 41.8722 -87.1428 49° Northeast 181 208 5,300 242 Climbing Chicago Center
Wed 10:53:22 PM 41.9011 -87.0944 51° Northeast 170 196 5,700 435 Climbing Chicago Center
Wed 10:54:24 PM 41.9297 -87.0456 52° Northeast 168 193 6,200 195 Climbing Chicago Center
Wed 10:55:25 PM 41.9681 -86.9839 50° Northeast 179 206 6,100 244 Descending Chicago Center
Wed 10:56:27 PM 41.9972 -86.9319 53° Northeast 176 203 6,700 532 Climbing Chicago Center
Wed 10:57:29 PM 42.0242 -86.8886 50° Northeast 157 181 7,200 195 Climbing Chicago Center
Wed 10:58:30 PM 42.0556 -86.8389 50° Northeast 161 185 7,100 -48 Descending Chicago Center
Wed 10:59:33 PM 42.0819 -86.7936 52° Northeast 153 176 7,100  Level Chicago Center
Wed 11:00:34 PM 42.1094 -86.7467 52° Northeast 158 182 7,100  Level Chicago Center
Wed 11:01:36 PM 42.1375 -86.7006 51° Northeast 159 183 7,100  Level Chicago Center
Wed 11:02:38 PM 42.1633 -86.6531 54° Northeast 158 182 7,100 49 Level Chicago Center
Wed 11:03:39 PM 42.1831 -86.6008 63° Northeast 157 181 7,200  Climbing Chicago Center
Wed 11:04:41 PM 42.2050 -86.5489 60° Northeast 158 182 7,100 -48 Descending Chicago Center
Wed 11:05:43 PM 42.2297 -86.4881 61° Northeast 155 178 7,100  Level Chicago Center
Wed 11:06:44 PM 42.2506 -86.4369 61° Northeast 156 180 7,100  Level Chicago Center
Wed 11:07:46 PM 42.2731 -86.3861 59° Northeast 157 181 7,100 48 Level Chicago Center
Wed 11:08:48 PM 42.2953 -86.3400 57° Northeast 151 174 7,200  Climbing Chicago Center
Wed 11:09:49 PM 42.3158 -86.2908 61° Northeast 156 180 7,100 -49 Descending Chicago Center
Wed 11:10:51 PM 42.3422 -86.2297 60° Northeast 158 182 7,100  Level Chicago Center
Wed 11:11:53 PM 42.3658 -86.1808 57° Northeast 157 181 7,100  Level Chicago Center
Wed 11:12:54 PM 42.3964 -86.1378 46° Northeast 159 183 7,100 -146 Level Chicago Center
Wed 11:13:56 PM 42.4289 -86.0967 43° Northeast 160 184 6,800 -439 Descending Chicago Center
Wed 11:14:57 PM 42.4642 -86.0544 41° Northeast 167 192 6,200 -585 Descending Chicago Center
Wed 11:15:59 PM 42.4986 -86.0078 45° Northeast 173 199 5,600 -537 Descending Chicago Center
Wed 11:17:00 PM 42.5339 -85.9594 45° Northeast 178 205 5,100 -488 Descending Chicago Center
Wed 11:18:02 PM 42.5694 -85.9158 42° Northeast 175 201 4,600 -532 Descending Chicago Center
Wed 11:19:04 PM 42.6128 -85.8692 38° Northeast 169 194 4,000 -488 Descending Chicago Center
Wed 11:20:05 PM 42.6506 -85.8339 34° Northeast 167 192 3,600 -293 Descending Chicago Center
Wed 11:21:07 PM 42.6867 -85.7956 38° Northeast 166 191 3,400 -244 Descending Chicago Center
Wed 11:22:08 PM 42.7156 -85.7486 50° Northeast 163 188 3,100 -244 Descending Chicago Center
Wed 11:23:10 PM 42.7456 -85.7025 48° Northeast 164 189 2,900 -341 Descending Chicago Center
Wed 11:24:11 PM 42.7742 -85.6600 47° Northeast 157 181 2,400 -439 Descending Chicago Center
Wed 11:25:13 PM 42.8078 -85.6111 47° Northeast 151 174 2,000 -194 Descending Chicago Center
Wed 11:26:15 PM 42.8319 -85.5719 50° Northeast 145 167 2,000 -146 Level Chicago Center
Wed 11:27:16 PM 42.8453 -85.5300 67° East 132 152 1,700 -439 Descending Chicago Center
Wed 11:28:18 PM 42.8686 -85.5103 32° Northeast 117 135 1,100 -581 Descending Chicago Center
Wed 11:30:00 PM 42.8667 -85.5167 56° Northeast  Level FlightAware Approximate

Login

Don't have an account? Register now (free) for customized features, flight alerts, and more!